Time;durP1;ratioP1;P1;durP2;ratioP2;P2;SDS_P1;SDS_P2;PMS_P1;PMS_P2;Temp;Humidity;BMP_temperature;BMP_pressure;BME280_temperature;BME280_humidity;BME280_pressure;Samples;Min_cycle;Max_cycle;Signal;HPM_P1;HPM_P2
2022/03/29 00:00:29;;;;;;;14.50;7.27;;;11.10;99.90;;;;;;5074509;28;20294;-64
2022/03/29 00:02:54;;;;;;;15.03;7.40;;;11.00;99.90;;;;;;5076659;28;20164;-65
2022/03/29 00:05:20;;;;;;;13.17;6.80;;;11.00;99.90;;;;;;5076711;28;20166;-64
2022/03/29 00:07:45;;;;;;;10.53;6.47;;;10.90;99.90;;;;;;5076873;28;20171;-66
2022/03/29 00:10:11;;;;;;;10.17;6.10;;;10.90;99.90;;;;;;5076694;28;20217;-64
2022/03/29 00:12:37;;;;;;;13.10;6.50;;;10.80;99.90;;;;;;5092731;28;20179;-65
2022/03/29 00:15:05;;;;;;;10.50;5.93;;;10.80;99.90;;;;;;5076480;28;20173;-64
2022/03/29 00:17:31;;;;;;;12.57;6.40;;;10.80;99.90;;;;;;5076880;28;20167;-64
2022/03/29 00:19:57;;;;;;;11.77;6.77;;;10.70;99.90;;;;;;5076314;28;20163;-65
2022/03/29 00:22:23;;;;;;;10.23;6.07;;;10.80;99.90;;;;;;5091848;28;20183;-64
2022/03/29 00:24:49;;;;;;;15.43;7.47;;;10.80;99.90;;;;;;5076709;28;20170;-63
2022/03/29 00:27:15;;;;;;;10.67;6.80;;;10.70;99.90;;;;;;5076683;28;20167;-65
2022/03/29 00:29:40;;;;;;;13.83;6.77;;;10.70;99.90;;;;;;5094304;28;20171;-67
2022/03/29 00:32:07;;;;;;;13.70;6.67;;;10.50;99.90;;;;;;5078477;28;20199;-64
2022/03/29 00:34:34;;;;;;;13.97;7.50;;;10.50;99.90;;;;;;5079716;28;20160;-64
2022/03/29 00:37:00;;;;;;;12.43;7.07;;;10.50;99.90;;;;;;5079123;28;20182;-64
2022/03/29 00:39:25;;;;;;;16.33;7.47;;;10.50;99.90;;;;;;5077706;28;20167;-66
2022/03/29 00:41:52;;;;;;;10.67;6.90;;;10.40;99.90;;;;;;5076279;28;20171;-65
2022/03/29 00:44:17;;;;;;;16.50;6.50;;;10.40;99.90;;;;;;5075599;28;20642;-63
2022/03/29 00:46:43;;;;;;;10.93;5.87;;;10.30;99.90;;;;;;5092477;28;20183;-64
2022/03/29 00:49:09;;;;;;;13.00;7.00;;;10.30;99.90;;;;;;5076856;28;20160;-64
2022/03/29 00:51:35;;;;;;;11.00;5.90;;;10.30;99.90;;;;;;5075896;28;20622;-65
2022/03/29 00:54:01;;;;;;;11.30;6.50;;;10.20;99.90;;;;;;5076401;28;20302;-64
2022/03/29 00:56:27;;;;;;;8.57;5.73;;;10.20;99.90;;;;;;5075980;28;20646;-64
2022/03/29 00:58:53;;;;;;;13.47;6.47;;;10.20;99.90;;;;;;5075739;28;20163;-65
2022/03/29 01:01:18;;;;;;;14.00;6.30;;;10.10;99.90;;;;;;5091401;28;20266;-63
2022/03/29 01:03:45;;;;;;;10.47;6.07;;;10.10;99.90;;;;;;5076197;28;20160;-63
2022/03/29 01:06:10;;;;;;;11.67;5.97;;;10.10;99.90;;;;;;5080405;28;20160;-63
2022/03/29 01:08:37;;;;;;;12.53;6.27;;;10.10;99.90;;;;;;5077731;28;20478;-63
2022/03/29 01:11:06;;;;;;;11.30;6.23;;;10.10;99.90;;;;;;5079901;28;20225;-64
2022/03/29 01:13:32;;;;;;;13.40;6.87;;;10.10;99.90;;;;;;5079903;28;20159;-63
2022/03/29 01:17:38;;;;;;;13.60;6.70;;;10.00;99.90;;;;;;5075483;28;20203;-63
2022/03/29 01:18:48;;;;;;;10.70;6.10;;;10.00;99.90;;;;;;5075661;28;20171;-64
2022/03/29 01:21:20;;;;;;;12.63;6.53;;;10.00;99.90;;;;;;5075334;28;20195;-65
2022/03/29 01:23:47;;;;;;;15.80;7.20;;;10.00;99.90;;;;;;5075196;28;20247;-64
2022/03/29 01:26:15;;;;;;;10.13;6.20;;;9.90;99.90;;;;;;5076518;28;20224;-64
2022/03/29 01:28:41;;;;;;;12.27;6.53;;;9.90;99.90;;;;;;5092852;28;20182;-64
2022/03/29 01:31:07;;;;;;;10.77;5.93;;;9.80;99.90;;;;;;5078415;28;20203;-64
2022/03/29 01:33:33;;;;;;;15.90;7.57;;;9.80;99.90;;;;;;5081041;28;20159;-64
2022/03/29 01:36:00;;;;;;;13.70;6.67;;;9.90;99.90;;;;;;5081541;28;20179;-65
2022/03/29 01:38:25;;;;;;;12.47;6.27;;;9.70;99.90;;;;;;5097681;28;20209;-65
2022/03/29 01:40:51;;;;;;;15.20;6.27;;;9.70;99.90;;;;;;5081171;28;20530;-64
2022/03/29 01:43:16;;;;;;;13.47;7.37;;;9.70;99.90;;;;;;5080565;28;20542;-64
2022/03/29 01:45:42;;;;;;;19.57;7.40;;;9.70;99.90;;;;;;5078637;28;20170;-64
2022/03/29 01:48:08;;;;;;;12.60;6.73;;;9.60;99.90;;;;;;5081508;28;20462;-64
2022/03/29 01:50:34;;;;;;;8.47;5.83;;;9.70;99.90;;;;;;5082936;28;20202;-64
2022/03/29 01:52:59;;;;;;;12.23;7.07;;;9.70;99.90;;;;;;5081916;28;20223;-64
2022/03/29 01:55:25;;;;;;;12.67;7.07;;;9.60;99.90;;;;;;5080060;28;20167;-64
2022/03/29 01:57:53;;;;;;;14.53;7.37;;;9.60;99.90;;;;;;5082750;28;20178;-65
2022/03/29 02:00:30;;;;;;;11.13;6.57;;;9.60;99.90;;;;;;5084444;28;20255;-64
2022/03/29 02:02:56;;;;;;;15.13;7.27;;;9.60;99.90;;;;;;5085635;28;20591;-65
2022/03/29 02:05:23;;;;;;;14.23;6.87;;;9.60;99.90;;;;;;5099146;28;20240;-65
2022/03/29 02:07:48;;;;;;;10.67;6.80;;;9.50;99.90;;;;;;5082040;28;20242;-65
2022/03/29 02:10:21;;;;;;;12.87;6.43;;;9.60;99.90;;;;;;5081130;28;20183;-65
2022/03/29 02:12:50;;;;;;;15.77;6.83;;;9.50;99.90;;;;;;5079201;28;20167;-64
2022/03/29 02:15:16;;;;;;;12.60;6.17;;;9.40;99.90;;;;;;5077469;28;20170;-64
2022/03/29 02:17:43;;;;;;;11.50;6.97;;;9.30;99.90;;;;;;5076509;28;20214;-66
2022/03/29 02:20:10;;;;;;;11.93;6.57;;;9.40;99.90;;;;;;5092090;28;20187;-65
2022/03/29 02:22:35;;;;;;;15.43;7.30;;;9.20;99.90;;;;;;5074798;28;20181;-64
2022/03/29 02:25:01;;;;;;;13.77;7.60;;;9.20;99.90;;;;;;5074882;28;20250;-64
2022/03/29 02:27:27;;;;;;;12.47;7.60;;;9.10;99.90;;;;;;5074467;28;20168;-66
2022/03/29 02:29:53;;;;;;;14.30;7.90;;;9.10;99.90;;;;;;5075364;28;20500;-65
2022/03/29 02:32:19;;;;;;;10.97;7.23;;;8.90;99.90;;;;;;5060319;28;20601;-64
2022/03/29 02:34:47;;;;;;;11.33;7.27;;;8.90;99.90;;;;;;5077096;28;20255;-64
2022/03/29 02:37:13;;;;;;;13.70;7.23;;;8.90;99.90;;;;;;5074335;28;20183;-65
2022/03/29 02:39:39;;;;;;;13.80;8.20;;;8.80;99.90;;;;;;5074193;28;20180;-64
2022/03/29 02:42:06;;;;;;;10.80;6.97;;;8.70;99.90;;;;;;5073709;28;20177;-65
2022/03/29 02:44:32;;;;;;;13.07;6.57;;;8.70;99.90;;;;;;5073851;28;20159;-65
2022/03/29 02:46:57;;;;;;;13.27;7.13;;;8.70;99.90;;;;;;5089380;28;20229;-65
2022/03/29 02:49:24;;;;;;;11.83;7.07;;;8.60;99.90;;;;;;5073470;28;20171;-65
2022/03/29 02:51:50;;;;;;;12.17;6.73;;;8.60;99.90;;;;;;5073632;28;20201;-65
2022/03/29 02:54:16;;;;;;;11.57;7.07;;;8.40;99.90;;;;;;5073594;28;20562;-65
2022/03/29 02:56:42;;;;;;;10.07;6.63;;;8.30;99.90;;;;;;5073738;28;20168;-66
2022/03/29 02:59:08;;;;;;;12.83;6.73;;;8.40;99.90;;;;;;5073815;28;20258;-64
2022/03/29 03:01:34;;;;;;;13.53;7.13;;;8.30;99.90;;;;;;5073321;28;20213;-65
2022/03/29 03:03:59;;;;;;;14.73;6.50;;;8.30;99.90;;;;;;5073479;28;20205;-65
2022/03/29 03:06:25;;;;;;;12.80;7.27;;;8.20;99.90;;;;;;5073842;28;20632;-65
2022/03/29 03:08:51;;;;;;;10.60;6.57;;;8.10;99.90;;;;;;5073538;28;20160;-65
2022/03/29 03:11:16;;;;;;;15.63;6.83;;;8.10;99.90;;;;;;5073357;28;20548;-65
2022/03/29 03:13:42;;;;;;;10.70;6.47;;;8.10;99.90;;;;;;5092242;28;20209;-65
2022/03/29 03:16:08;;;;;;;16.53;7.80;;;8.10;99.90;;;;;;5076010;28;20177;-64
2022/03/29 03:18:34;;;;;;;13.90;6.77;;;8.00;99.90;;;;;;5076934;28;20158;-65
2022/03/29 03:21:00;;;;;;;15.43;7.60;;;8.00;99.90;;;;;;5075572;28;20172;-65
2022/03/29 03:23:26;;;;;;;15.47;8.27;;;8.00;99.90;;;;;;5073350;28;20224;-65
2022/03/29 03:25:51;;;;;;;11.20;7.27;;;7.90;99.90;;;;;;5074006;28;20604;-64
2022/03/29 03:28:17;;;;;;;10.90;7.07;;;7.80;99.90;;;;;;5074145;28;20162;-65
2022/03/29 03:30:43;;;;;;;10.23;6.90;;;7.70;99.90;;;;;;5073787;28;20195;-65
2022/03/29 03:33:08;;;;;;;15.57;8.37;;;7.80;99.90;;;;;;5073639;28;20228;-65
2022/03/29 03:35:34;;;;;;;14.17;6.93;;;7.80;99.90;;;;;;5075372;28;20594;-63
2022/03/29 03:38:00;;;;;;;12.23;7.60;;;7.60;99.90;;;;;;5078990;28;20201;-64
2022/03/29 03:40:25;;;;;;;13.73;8.33;;;7.60;99.90;;;;;;5089093;28;20224;-65
2022/03/29 03:42:51;;;;;;;13.33;8.00;;;7.60;99.90;;;;;;5097486;28;20225;-65
2022/03/29 03:45:17;;;;;;;16.87;10.47;;;7.50;99.90;;;;;;5098014;28;20163;-64
2022/03/29 03:47:42;;;;;;;16.17;9.43;;;7.50;99.90;;;;;;5097195;28;20169;-64
2022/03/29 03:50:09;;;;;;;16.17;9.73;;;7.50;99.90;;;;;;5097756;28;20180;-65
2022/03/29 03:52:35;;;;;;;16.63;10.10;;;7.50;99.90;;;;;;5097361;28;20199;-65
2022/03/29 03:55:01;;;;;;;14.07;7.50;;;7.50;99.90;;;;;;5079687;28;20503;-64
2022/03/29 03:57:27;;;;;;;15.43;7.30;;;7.40;99.90;;;;;;5098881;28;20165;-64
2022/03/29 03:59:55;;;;;;;14.33;8.13;;;7.40;99.90;;;;;;5098966;28;20172;-65
2022/03/29 04:02:22;;;;;;;14.73;8.23;;;7.30;99.90;;;;;;5098703;28;20540;-65
2022/03/29 04:04:47;;;;;;;14.00;8.17;;;7.50;99.90;;;;;;5082541;28;20233;-64
2022/03/29 04:07:14;;;;;;;14.17;7.63;;;7.40;99.90;;;;;;5112839;28;20169;-64
2022/03/29 04:09:39;;;;;;;13.77;8.50;;;7.40;99.90;;;;;;5100799;28;20204;-64
2022/03/29 04:12:07;;;;;;;13.17;7.97;;;7.40;99.90;;;;;;5096791;28;20281;-64
2022/03/29 04:14:33;;;;;;;14.67;8.20;;;7.30;99.90;;;;;;5098004;28;20199;-64
2022/03/29 04:16:58;;;;;;;13.87;8.53;;;7.30;99.90;;;;;;5096738;28;20192;-65
2022/03/29 04:19:24;;;;;;;14.87;8.73;;;7.30;99.90;;;;;;5096670;28;20170;-65
2022/03/29 04:21:50;;;;;;;16.03;8.70;;;7.30;99.90;;;;;;5096717;28;20252;-65
2022/03/29 04:24:16;;;;;;;11.87;7.63;;;7.30;99.90;;;;;;5097181;28;20240;-64
2022/03/29 04:26:41;;;;;;;14.30;8.97;;;7.20;99.90;;;;;;5097041;28;20218;-66
2022/03/29 04:29:07;;;;;;;13.83;7.00;;;7.30;99.90;;;;;;5078905;28;20167;-66
2022/03/29 04:31:33;;;;;;;12.77;8.10;;;7.30;99.90;;;;;;5077018;28;20617;-65
2022/03/29 04:34:00;;;;;;;13.50;7.80;;;7.10;99.90;;;;;;5076296;28;20207;-66
2022/03/29 04:36:26;;;;;;;17.67;8.10;;;7.20;99.90;;;;;;5076199;28;20550;-65
2022/03/29 04:38:52;;;;;;;14.47;9.20;;;7.30;99.90;;;;;;5075693;28;20177;-65
2022/03/29 04:41:18;;;;;;;19.17;10.60;;;7.30;99.90;;;;;;5076308;28;20208;-65
2022/03/29 04:43:43;;;;;;;15.57;8.57;;;7.40;99.90;;;;;;5076077;28;20199;-64
2022/03/29 04:46:09;;;;;;;15.93;9.03;;;7.40;99.90;;;;;;5076156;28;20193;-64
2022/03/29 04:48:35;;;;;;;15.00;9.60;;;7.50;99.90;;;;;;5075784;28;20268;-65
2022/03/29 04:51:00;;;;;;;15.77;9.87;;;7.30;99.90;;;;;;5076626;28;20204;-64
2022/03/29 04:53:26;;;;;;;16.13;8.70;;;7.40;99.90;;;;;;5075655;28;20223;-64
2022/03/29 04:55:52;;;;;;;18.07;9.43;;;7.50;99.90;;;;;;5075825;28;20177;-65
2022/03/29 04:58:18;;;;;;;15.03;8.70;;;7.30;99.90;;;;;;5076471;28;20606;-64
2022/03/29 05:00:44;;;;;;;15.40;9.57;;;7.40;99.90;;;;;;5077121;28;20172;-65
2022/03/29 05:03:09;;;;;;;16.10;9.73;;;7.50;99.90;;;;;;5076199;28;20156;-64
2022/03/29 05:05:35;;;;;;;14.90;8.17;;;7.50;99.90;;;;;;5075447;28;20212;-65
2022/03/29 05:08:00;;;;;;;16.13;9.30;;;7.40;99.90;;;;;;5075718;28;20167;-65
2022/03/29 05:10:26;;;;;;;19.17;9.80;;;7.40;99.90;;;;;;5075622;28;20201;-65
2022/03/29 05:12:52;;;;;;;20.80;11.13;;;7.40;99.90;;;;;;5075642;28;20599;-64
2022/03/29 05:15:20;;;;;;;16.33;8.80;;;7.50;99.90;;;;;;5075445;28;20172;-65
2022/03/29 05:17:46;;;;;;;16.80;9.27;;;7.40;99.90;;;;;;5074578;28;20218;-64
2022/03/29 05:20:14;;;;;;;14.77;9.20;;;7.50;99.90;;;;;;5076262;28;20210;-65
2022/03/29 05:22:48;;;;;;;15.97;8.60;;;7.50;99.90;;;;;;5075734;28;20171;-64
2022/03/29 05:25:15;;;;;;;20.60;9.43;;;7.60;99.90;;;;;;5075828;28;20167;-65
2022/03/29 05:27:42;;;;;;;14.90;8.90;;;7.60;99.90;;;;;;5076056;28;20593;-65
2022/03/29 05:30:08;;;;;;;17.97;9.63;;;7.60;99.90;;;;;;5075922;28;20250;-65
2022/03/29 05:32:34;;;;;;;15.97;8.70;;;7.60;99.90;;;;;;5075075;28;20633;-64
2022/03/29 05:35:00;;;;;;;15.70;9.27;;;7.60;99.90;;;;;;5075983;28;20184;-64
2022/03/29 05:37:25;;;;;;;19.10;9.67;;;7.60;99.90;;;;;;5075611;28;20176;-65
2022/03/29 05:39:51;;;;;;;15.83;9.80;;;7.70;99.90;;;;;;5074926;28;20600;-65
2022/03/29 05:42:16;;;;;;;19.97;9.90;;;7.50;99.90;;;;;;5075065;28;20167;-65
2022/03/29 05:44:43;;;;;;;14.97;9.37;;;7.50;99.90;;;;;;5075127;28;20172;-65
2022/03/29 05:49:53;;;;;;;17.13;9.20;;;7.50;99.90;;;;;;5074916;28;20613;-64
2022/03/29 05:52:21;;;;;;;14.90;8.47;;;7.70;99.90;;;;;;5074664;28;20198;-65
2022/03/29 05:54:47;;;;;;;16.43;9.10;;;7.50;99.90;;;;;;5074433;28;20330;-64
2022/03/29 05:57:17;;;;;;;22.10;9.40;;;7.60;99.90;;;;;;5075545;28;20188;-65
2022/03/29 05:59:45;;;;;;;19.77;9.37;;;7.70;99.90;;;;;;5078425;28;20166;-66
2022/03/29 06:02:10;;;;;;;22.77;10.03;;;7.80;99.90;;;;;;5074742;28;20159;-68
2022/03/29 06:04:36;;;;;;;17.67;9.40;;;7.70;99.90;;;;;;5074258;28;20188;-66
2022/03/29 06:07:06;;;;;;;18.23;8.73;;;7.70;99.90;;;;;;5074756;28;20164;-64
2022/03/29 06:09:35;;;;;;;14.33;9.03;;;7.80;99.90;;;;;;5074252;28;20191;-65
2022/03/29 06:12:01;;;;;;;15.33;9.23;;;7.60;99.90;;;;;;5074737;28;20210;-64
2022/03/29 06:14:27;;;;;;;18.87;9.70;;;7.70;99.90;;;;;;5073877;28;20160;-65
2022/03/29 06:16:55;;;;;;;16.57;9.67;;;7.70;99.90;;;;;;5074587;28;20220;-66
2022/03/29 06:19:20;;;;;;;19.80;9.80;;;7.60;99.90;;;;;;5078006;28;20156;-64
2022/03/29 06:21:46;;;;;;;15.97;9.40;;;7.60;99.90;;;;;;5077288;28;20184;-65
2022/03/29 06:24:12;;;;;;;20.70;10.07;;;7.70;99.90;;;;;;5074221;28;20182;-65
2022/03/29 06:26:41;;;;;;;14.63;9.70;;;7.70;99.90;;;;;;5075011;28;20511;-65
2022/03/29 06:29:08;;;;;;;16.43;9.63;;;7.60;99.90;;;;;;5074282;28;20165;-66
2022/03/29 06:31:34;;;;;;;13.77;8.07;;;7.80;99.90;;;;;;5073755;28;20209;-64
2022/03/29 06:34:00;;;;;;;15.07;8.80;;;7.70;99.90;;;;;;5073472;28;20477;-65
2022/03/29 06:36:26;;;;;;;17.07;9.40;;;7.80;99.90;;;;;;5073601;28;20647;-64
2022/03/29 06:38:53;;;;;;;21.20;12.97;;;7.70;99.90;;;;;;5073904;28;20169;-65
2022/03/29 06:41:19;;;;;;;15.57;8.03;;;7.70;99.90;;;;;;5073755;28;20165;-64
2022/03/29 06:43:45;;;;;;;16.43;9.37;;;7.70;99.90;;;;;;5073825;28;20171;-66
2022/03/29 06:46:11;;;;;;;20.30;9.00;;;7.60;99.90;;;;;;5073097;28;20164;-65
2022/03/29 06:48:38;;;;;;;19.07;9.57;;;7.60;99.90;;;;;;5072924;28;20176;-64
2022/03/29 06:51:04;;;;;;;18.57;9.70;;;7.60;99.90;;;;;;5073549;28;20192;-66
2022/03/29 06:53:30;;;;;;;23.37;9.50;;;7.60;99.90;;;;;;5074589;28;20226;-69
2022/03/29 06:55:56;;;;;;;21.93;10.50;;;7.70;99.90;;;;;;5074636;28;20634;-65
2022/03/29 06:58:21;;;;;;;16.03;9.83;;;7.80;99.90;;;;;;5078042;28;20164;-65
2022/03/29 07:00:47;;;;;;;17.43;9.47;;;7.90;99.90;;;;;;5078230;28;20178;-66
2022/03/29 07:03:13;;;;;;;21.47;10.70;;;7.80;99.90;;;;;;5077095;28;20203;-66
2022/03/29 07:05:42;;;;;;;19.90;11.07;;;8.00;99.90;;;;;;5073511;28;20247;-65
2022/03/29 07:08:11;;;;;;;17.13;10.20;;;7.90;99.90;;;;;;5073157;28;20156;-67
2022/03/29 07:13:22;;;;;;;23.73;11.17;;;7.90;99.90;;;;;;5073217;28;20189;-64
2022/03/29 07:15:51;;;;;;;29.70;14.63;;;7.80;99.90;;;;;;5073653;28;20263;-65
2022/03/29 07:18:18;;;;;;;20.57;11.60;;;7.90;99.90;;;;;;5073781;28;20178;-65
2022/03/29 07:20:43;;;;;;;21.57;12.07;;;7.90;99.90;;;;;;5073685;28;20551;-65
2022/03/29 07:23:09;;;;;;;20.77;10.83;;;7.90;99.90;;;;;;5073681;28;20175;-64
2022/03/29 07:25:36;;;;;;;22.40;13.03;;;8.00;99.90;;;;;;5073326;28;20161;-65
2022/03/29 07:28:02;;;;;;;18.47;11.13;;;8.10;99.90;;;;;;5073366;28;20171;-66
2022/03/29 07:30:29;;;;;;;20.50;10.53;;;8.20;99.90;;;;;;5055854;28;20177;-66
2022/03/29 07:33:00;;;;;;;24.20;12.07;;;8.10;99.90;;;;;;5073083;28;20511;-65
2022/03/29 07:35:28;;;;;;;23.17;12.83;;;8.10;99.90;;;;;;5073412;28;20159;-65
2022/03/29 07:37:55;;;;;;;21.63;13.07;;;8.10;99.90;;;;;;5073493;28;20179;-66
2022/03/29 07:40:24;;;;;;;24.23;13.07;;;8.10;99.90;;;;;;5073095;28;20266;-65
2022/03/29 07:42:50;;;;;;;23.03;11.93;;;8.20;99.90;;;;;;5073736;28;20160;-64
2022/03/29 07:45:16;;;;;;;25.67;12.97;;;8.10;99.90;;;;;;5072730;28;20295;-64
2022/03/29 07:47:43;;;;;;;21.30;12.80;;;8.20;99.90;;;;;;5072400;28;20159;-65
2022/03/29 07:50:11;;;;;;;23.60;13.33;;;8.10;99.90;;;;;;5072831;28;20171;-64
2022/03/29 07:52:39;;;;;;;26.17;13.10;;;8.20;99.90;;;;;;5074513;28;20191;-67
2022/03/29 07:55:07;;;;;;;26.77;12.47;;;8.10;99.90;;;;;;5073373;28;20197;-64
2022/03/29 07:57:34;;;;;;;23.03;13.03;;;8.20;99.90;;;;;;5072634;28;20171;-64
2022/03/29 08:00:31;;;;;;;21.93;12.17;;;8.10;99.90;;;;;;5072560;28;20205;-64
2022/03/29 08:02:46;;;;;;;24.63;13.07;;;8.10;99.90;;;;;;5072691;28;20188;-64
2022/03/29 08:05:11;;;;;;;25.93;13.20;;;8.10;99.90;;;;;;5072739;28;20152;-63
2022/03/29 08:07:37;;;;;;;23.90;12.27;;;8.10;99.90;;;;;;5072747;28;20222;-65
2022/03/29 08:10:03;;;;;;;25.37;11.40;;;8.10;99.90;;;;;;5073270;28;20213;-65
2022/03/29 08:12:29;;;;;;;28.00;13.23;;;8.10;99.90;;;;;;5072382;28;20227;-65
2022/03/29 08:14:55;;;;;;;24.10;12.57;;;8.10;99.90;;;;;;5072003;28;20276;-65
2022/03/29 08:17:20;;;;;;;22.03;12.83;;;8.10;99.90;;;;;;5072448;28;20166;-64
2022/03/29 08:19:46;;;;;;;26.60;14.07;;;8.10;99.90;;;;;;5071668;28;20525;-64
2022/03/29 08:22:11;;;;;;;24.10;12.33;;;8.20;99.90;;;;;;5075176;28;20512;-67
2022/03/29 08:24:37;;;;;;;25.57;12.10;;;8.30;99.90;;;;;;5076853;28;20167;-64
2022/03/29 08:27:03;;;;;;;22.77;11.30;;;8.30;99.90;;;;;;5074768;28;20617;-63
2022/03/29 08:29:28;;;;;;;22.23;12.73;;;8.20;99.90;;;;;;5078389;28;20154;-65
2022/03/29 08:31:54;;;;;;;22.03;12.40;;;8.10;99.90;;;;;;5062557;28;20213;-64
2022/03/29 08:34:20;;;;;;;18.37;11.03;;;8.10;99.90;;;;;;5076670;28;20177;-64
2022/03/29 08:36:46;;;;;;;19.87;11.00;;;8.00;99.90;;;;;;5076392;28;20230;-63
2022/03/29 08:39:12;;;;;;;21.13;12.20;;;8.00;99.90;;;;;;5076475;28;20175;-63
2022/03/29 08:41:46;;;;;;;23.17;12.60;;;8.10;99.90;;;;;;5074595;28;20507;-64
2022/03/29 08:44:11;;;;;;;19.80;12.10;;;8.10;99.90;;;;;;5076334;28;20166;-65
2022/03/29 08:46:41;;;;;;;21.57;12.47;;;8.30;99.90;;;;;;5076210;28;20171;-65
2022/03/29 08:49:08;;;;;;;17.83;10.93;;;8.30;99.90;;;;;;5075965;28;20199;-64
2022/03/29 08:51:36;;;;;;;22.17;11.73;;;8.20;99.90;;;;;;5076259;28;20205;-64
2022/03/29 08:54:02;;;;;;;20.50;11.00;;;8.20;99.90;;;;;;5075916;28;20221;-64
2022/03/29 08:56:27;;;;;;;23.20;12.77;;;8.10;99.90;;;;;;5075213;28;20167;-65
2022/03/29 08:58:53;;;;;;;24.17;14.20;;;8.20;99.90;;;;;;5075558;28;20521;-65
2022/03/29 09:01:19;;;;;;;20.20;11.93;;;8.30;99.90;;;;;;5075881;28;20190;-65
2022/03/29 09:03:47;;;;;;;23.70;13.10;;;8.20;99.90;;;;;;5075955;28;20168;-64
2022/03/29 09:06:13;;;;;;;24.33;11.80;;;8.20;99.90;;;;;;5075749;28;20263;-65
2022/03/29 09:08:46;;;;;;;24.03;11.43;;;8.30;99.90;;;;;;5078688;28;20233;-64
2022/03/29 09:11:13;;;;;;;22.90;12.53;;;8.40;99.90;;;;;;5095638;28;20202;-65
2022/03/29 09:13:40;;;;;;;30.27;12.80;;;8.50;99.90;;;;;;5095251;28;20231;-64
2022/03/29 09:16:10;;;;;;;20.93;12.03;;;8.40;99.90;;;;;;5096519;28;20273;-64
2022/03/29 09:18:37;;;;;;;23.43;13.10;;;8.40;99.90;;;;;;5096002;28;20197;-64
2022/03/29 09:21:09;;;;;;;22.90;13.53;;;8.50;99.90;;;;;;5096016;28;20173;-63
2022/03/29 09:23:35;;;;;;;20.70;11.50;;;8.60;99.90;;;;;;5095570;28;20211;-63
2022/03/29 09:26:01;;;;;;;23.47;12.47;;;8.50;99.90;;;;;;5095022;28;20153;-63
2022/03/29 09:28:38;;;;;;;22.50;11.90;;;8.50;99.90;;;;;;5095336;28;20202;-64
2022/03/29 09:31:18;;;;;;;19.80;12.33;;;8.50;99.90;;;;;;5095280;28;20644;-64
2022/03/29 09:33:44;;;;;;;19.23;11.37;;;8.40;99.90;;;;;;5095073;28;20162;-63
2022/03/29 09:36:13;;;;;;;23.97;12.30;;;8.50;99.90;;;;;;5095225;28;20191;-63
2022/03/29 09:38:43;;;;;;;24.20;12.87;;;8.50;99.90;;;;;;5095125;28;20163;-65
2022/03/29 09:41:30;;;;;;;20.47;11.70;;;8.50;99.90;;;;;;5095169;28;20174;-64
2022/03/29 09:44:07;;;;;;;22.63;11.30;;;8.50;99.90;;;;;;5094997;28;20216;-64
2022/03/29 09:47:04;;;;;;;21.83;12.13;;;8.40;99.90;;;;;;5095349;28;20168;-64
2022/03/29 09:49:47;;;;;;;22.47;12.57;;;8.40;99.90;;;;;;5095260;28;20162;-64
2022/03/29 09:52:18;;;;;;;21.73;11.53;;;8.50;99.90;;;;;;5094669;28;20200;-64
2022/03/29 09:55:05;;;;;;;21.03;12.77;;;8.60;99.90;;;;;;5094930;28;20672;-64
2022/03/29 09:57:51;;;;;;;18.37;11.13;;;8.60;99.90;;;;;;5084119;28;20203;-64
2022/03/29 10:00:38;;;;;;;24.87;11.17;;;8.70;99.90;;;;;;5094725;28;20208;-65
2022/03/29 10:03:08;;;;;;;20.30;11.87;;;8.50;99.90;;;;;;5094491;28;20172;-65
2022/03/29 10:05:37;;;;;;;25.33;12.87;;;8.60;99.90;;;;;;5076960;28;20486;-64
2022/03/29 10:10:50;;;;;;;21.70;11.67;;;8.70;99.90;;;;;;5094571;28;20158;-63
2022/03/29 10:13:17;;;;;;;24.23;10.97;;;8.60;99.90;;;;;;5094522;28;20155;-65
2022/03/29 10:15:45;;;;;;;23.27;11.27;;;8.60;99.90;;;;;;5094301;28;20174;-66
2022/03/29 10:18:11;;;;;;;22.83;11.63;;;8.80;99.90;;;;;;5094621;28;20488;-64
2022/03/29 10:20:37;;;;;;;24.20;12.50;;;8.70;99.90;;;;;;5095055;28;20240;-65
2022/03/29 10:23:05;;;;;;;20.50;11.00;;;8.50;99.90;;;;;;5094946;28;20163;-64
2022/03/29 10:25:31;;;;;;;25.73;11.50;;;8.50;99.90;;;;;;5094924;28;20163;-66
2022/03/29 10:27:59;;;;;;;21.43;12.10;;;8.60;99.90;;;;;;5061766;28;20525;-65
2022/03/29 10:30:32;;;;;;;20.70;11.23;;;8.70;99.90;;;;;;5076295;28;20168;-67
2022/03/29 10:33:20;;;;;;;20.53;11.53;;;8.80;99.90;;;;;;5075858;28;20206;-67
2022/03/29 10:36:12;;;;;;;23.53;13.13;;;8.90;99.90;;;;;;5077463;28;20199;-65
2022/03/29 10:38:46;;;;;;;30.83;12.57;;;9.10;99.90;;;;;;5073289;28;20658;-64
2022/03/29 10:41:30;;;;;;;21.40;12.33;;;9.10;99.90;;;;;;5077272;28;20170;-65
2022/03/29 10:44:01;;;;;;;20.23;11.13;;;9.40;99.90;;;;;;5076343;28;20197;-65
2022/03/29 10:46:54;;;;;;;20.83;11.57;;;9.30;99.90;;;;;;5076964;28;20538;-64
2022/03/29 10:49:34;;;;;;;22.60;11.63;;;9.20;99.90;;;;;;5070697;28;20697;-64
2022/03/29 10:52:05;;;;;;;20.57;12.57;;;9.30;99.90;;;;;;5073728;28;20202;-65
2022/03/29 10:54:40;;;;;;;24.67;13.67;;;9.40;99.90;;;;;;5073502;28;20239;-65
2022/03/29 10:57:07;;;;;;;22.40;11.47;;;9.40;99.90;;;;;;5073506;28;20617;-64
2022/03/29 10:59:34;;;;;;;19.27;11.63;;;9.70;99.90;;;;;;5073283;28;20650;-65
2022/03/29 11:02:18;;;;;;;18.67;10.50;;;9.90;99.90;;;;;;5069422;28;20232;-65
2022/03/29 11:05:05;;;;;;;28.50;12.37;;;9.80;99.90;;;;;;5073186;28;20229;-65
2022/03/29 11:07:39;;;;;;;19.13;11.40;;;9.80;99.90;;;;;;5073639;28;20238;-67
2022/03/29 11:10:09;;;;;;;18.97;10.43;;;9.70;99.90;;;;;;5072881;28;20166;-65
2022/03/29 11:12:40;;;;;;;20.20;11.17;;;9.90;99.90;;;;;;5073526;28;20195;-65
2022/03/29 11:15:24;;;;;;;23.60;11.67;;;10.00;99.90;;;;;;5073292;28;20163;-65
2022/03/29 11:17:56;;;;;;;21.07;11.27;;;10.00;99.90;;;;;;5072944;28;20191;-65
2022/03/29 11:20:29;;;;;;;20.57;11.37;;;10.20;99.90;;;;;;5073457;28;20613;-66
2022/03/29 11:23:06;;;;;;;24.83;10.87;;;10.00;99.90;;;;;;5073446;28;20160;-65
2022/03/29 11:25:39;;;;;;;21.90;12.43;;;9.90;99.90;;;;;;5076627;28;20155;-65
2022/03/29 11:28:12;;;;;;;19.47;10.03;;;10.10;99.90;;;;;;5077234;28;20163;-65
2022/03/29 11:30:38;;;;;;;20.47;12.03;;;10.10;99.90;;;;;;5077974;28;20191;-67
2022/03/29 11:33:06;;;;;;;23.77;12.83;;;10.10;99.90;;;;;;5074717;28;20195;-66
2022/03/29 11:35:34;;;;;;;23.47;11.70;;;10.10;99.90;;;;;;5073219;28;20156;-67
2022/03/29 11:38:07;;;;;;;19.10;11.20;;;10.00;99.90;;;;;;5073455;28;20175;-64
2022/03/29 11:40:33;;;;;;;25.37;12.50;;;10.00;99.90;;;;;;5072589;28;20151;-64
2022/03/29 11:43:00;;;;;;;22.43;11.33;;;10.00;99.90;;;;;;5073240;28;20514;-66
2022/03/29 11:45:31;;;;;;;21.70;12.10;;;10.00;99.90;;;;;;5054824;28;20187;-66
2022/03/29 11:48:02;;;;;;;21.57;12.00;;;9.90;99.90;;;;;;5073463;28;20615;-65
2022/03/29 11:50:45;;;;;;;19.30;11.70;;;10.00;99.90;;;;;;5072626;28;20540;-66
2022/03/29 11:53:26;;;;;;;24.33;11.80;;;9.90;99.90;;;;;;5072581;28;20565;-65
2022/03/29 11:55:56;;;;;;;35.23;14.77;;;10.20;99.90;;;;;;5073298;28;20162;-65
2022/03/29 11:58:29;;;;;;;27.47;12.90;;;10.20;99.90;;;;;;5076593;28;20173;-65
2022/03/29 12:01:14;;;;;;;42.03;19.27;;;10.60;99.90;;;;;;5076723;28;20163;-65
2022/03/29 12:03:42;;;;;;;30.73;17.97;;;10.60;99.90;;;;;;5076579;28;20191;-65
2022/03/29 12:06:18;;;;;;;45.10;23.00;;;10.70;99.90;;;;;;5077808;28;20171;-65
2022/03/29 12:08:43;;;;;;;24.33;13.60;;;10.50;99.90;;;;;;5076915;28;20251;-65
2022/03/29 12:11:09;;;;;;;25.27;13.67;;;10.50;99.90;;;;;;5076444;28;20289;-64
2022/03/29 12:13:35;;;;;;;22.87;13.30;;;10.80;99.90;;;;;;5076153;28;20164;-64
2022/03/29 12:16:16;;;;;;;20.87;13.30;;;10.50;99.90;;;;;;5058720;28;20206;-64
2022/03/29 12:18:42;;;;;;;22.43;12.47;;;10.70;99.90;;;;;;5076787;28;20584;-67
2022/03/29 12:21:14;;;;;;;26.03;12.13;;;10.80;99.90;;;;;;5076312;28;20190;-67
2022/03/29 12:23:41;;;;;;;27.77;15.63;;;10.50;99.90;;;;;;5081912;28;20168;-66
2022/03/29 12:26:11;;;;;;;23.67;12.87;;;10.70;99.90;;;;;;5076475;28;20162;-65
2022/03/29 12:28:38;;;;;;;23.07;13.00;;;10.60;99.90;;;;;;5075955;28;20164;-64
2022/03/29 12:31:11;;;;;;;22.10;13.13;;;10.60;99.90;;;;;;5058657;28;20248;-64
2022/03/29 12:33:38;;;;;;;28.30;13.10;;;10.60;99.90;;;;;;5076206;28;20163;-65
2022/03/29 12:36:08;;;;;;;19.67;11.90;;;10.90;99.90;;;;;;5076878;28;20637;-65
2022/03/29 12:38:40;;;;;;;19.23;11.80;;;11.10;99.90;;;;;;5076035;28;20156;-64
2022/03/29 12:41:05;;;;;;;19.57;11.90;;;11.00;99.90;;;;;;5076321;28;20171;-65
2022/03/29 12:43:33;;;;;;;21.90;12.30;;;11.20;99.90;;;;;;5076342;28;20173;-65
2022/03/29 12:45:59;;;;;;;22.23;13.00;;;11.10;99.90;;;;;;5082571;28;20580;-67
2022/03/29 12:48:26;;;;;;;19.07;13.53;;;11.30;99.90;;;;;;5095318;28;20310;-65
2022/03/29 12:50:53;;;;;;;21.77;12.10;;;11.10;99.90;;;;;;5075702;28;20500;-65
2022/03/29 12:53:18;;;;;;;21.27;12.73;;;11.10;99.90;;;;;;5075887;28;20227;-65